createdAt,value
2023-03-29T00:00:14.242Z,99.90
2023-03-29T00:02:43.160Z,99.90
2023-03-29T00:05:12.346Z,99.90
2023-03-29T00:07:42.569Z,99.90
2023-03-29T00:10:12.005Z,99.90
2023-03-29T00:12:41.619Z,99.90
2023-03-29T00:15:10.646Z,99.90
2023-03-29T00:17:38.670Z,99.90
2023-03-29T00:20:10.287Z,99.90
2023-03-29T00:22:39.855Z,99.90
2023-03-29T00:25:10.547Z,99.90
2023-03-29T00:27:38.918Z,99.90
2023-03-29T00:30:09.118Z,99.90
2023-03-29T00:32:37.177Z,99.90
2023-03-29T00:35:06.625Z,99.90
2023-03-29T00:37:35.103Z,99.90
2023-03-29T00:40:07.761Z,99.90
2023-03-29T00:42:37.272Z,99.90
2023-03-29T00:45:08.852Z,99.90
2023-03-29T00:47:41.553Z,99.90
2023-03-29T00:50:15.834Z,99.90
2023-03-29T00:52:47.623Z,99.90
2023-03-29T00:55:19.851Z,99.90
2023-03-29T00:57:49.627Z,99.90
2023-03-29T01:00:21.262Z,99.90
2023-03-29T01:02:54.463Z,99.90
2023-03-29T01:05:27.086Z,99.90
2023-03-29T01:07:59.001Z,99.90
2023-03-29T01:10:31.101Z,99.90
2023-03-29T01:13:05.991Z,99.90
2023-03-29T01:15:34.884Z,99.90
2023-03-29T01:18:03.035Z,99.90
2023-03-29T01:20:49.086Z,99.90
2023-03-29T01:23:38.174Z,99.90
2023-03-29T01:26:15.935Z,99.90
2023-03-29T01:28:51.414Z,99.90
2023-03-29T01:32:15.737Z,99.90
2023-03-29T01:34:48.332Z,99.90
2023-03-29T01:37:21.958Z,99.90
2023-03-29T01:39:49.975Z,99.90
2023-03-29T01:42:36.540Z,99.90
2023-03-29T01:45:15.862Z,99.90
2023-03-29T01:47:53.227Z,99.90
2023-03-29T01:50:27.797Z,99.90
2023-03-29T01:53:01.010Z,99.90
2023-03-29T01:55:33.661Z,99.90
2023-03-29T01:58:04.030Z,99.90
2023-03-29T02:00:36.204Z,99.90
2023-03-29T02:03:09.007Z,99.90
2023-03-29T02:05:39.887Z,99.90
2023-03-29T02:08:10.904Z,99.90
2023-03-29T02:10:39.720Z,99.90
2023-03-29T02:13:07.873Z,99.90
2023-03-29T02:15:37.519Z,99.90
2023-03-29T02:18:06.901Z,99.90
2023-03-29T02:20:39.346Z,99.90
2023-03-29T02:23:14.397Z,99.90
2023-03-29T02:25:44.061Z,99.90
2023-03-29T02:28:12.652Z,99.90
2023-03-29T02:30:48.359Z,99.90
2023-03-29T02:33:19.636Z,99.90
2023-03-29T02:35:53.305Z,99.90
2023-03-29T02:38:25.718Z,99.90
2023-03-29T02:40:55.327Z,99.90
2023-03-29T02:43:26.003Z,99.90
2023-03-29T02:45:56.434Z,99.90
2023-03-29T02:48:28.444Z,99.90
2023-03-29T02:51:01.619Z,99.90
2023-03-29T02:53:33.822Z,99.90
2023-03-29T02:56:03.518Z,99.90
2023-03-29T02:58:32.913Z,99.90
2023-03-29T03:01:03.748Z,99.90
2023-03-29T03:03:32.135Z,99.90
2023-03-29T03:06:02.496Z,99.90
2023-03-29T03:08:30.621Z,99.90
2023-03-29T03:10:59.706Z,99.90
2023-03-29T03:13:28.090Z,99.90
2023-03-29T03:15:56.204Z,99.90
2023-03-29T03:18:25.682Z,99.90
2023-03-29T03:20:58.250Z,99.90
2023-03-29T03:23:26.923Z,99.90
2023-03-29T03:25:55.466Z,99.90
2023-03-29T03:28:25.223Z,99.90
2023-03-29T03:30:54.218Z,99.90
2023-03-29T03:33:22.525Z,99.90
2023-03-29T03:35:52.035Z,99.90
2023-03-29T03:38:20.130Z,99.90
2023-03-29T03:40:55.146Z,99.90
2023-03-29T03:43:23.672Z,99.90
2023-03-29T03:45:51.747Z,99.90
2023-03-29T03:48:19.901Z,99.90
2023-03-29T03:50:51.089Z,99.90
2023-03-29T03:53:19.310Z,99.90
2023-03-29T03:55:49.205Z,99.90
2023-03-29T03:58:17.429Z,99.90
2023-03-29T04:00:46.479Z,99.90
2023-03-29T04:03:14.642Z,99.90
2023-03-29T04:05:43.696Z,99.90
2023-03-29T04:08:13.591Z,99.90
2023-03-29T04:10:42.540Z,99.90
2023-03-29T04:13:10.496Z,99.90
2023-03-29T04:15:39.439Z,99.90
2023-03-29T04:18:07.800Z,99.90
2023-03-29T04:20:35.939Z,99.90
2023-03-29T04:23:04.001Z,99.90
2023-03-29T04:25:33.522Z,99.90
2023-03-29T04:28:01.614Z,99.90
2023-03-29T04:30:29.603Z,99.90
2023-03-29T04:32:57.700Z,99.90
2023-03-29T04:35:25.923Z,99.90
2023-03-29T04:37:54.652Z,99.90
2023-03-29T04:40:22.725Z,99.90
2023-03-29T04:42:52.584Z,99.90
2023-03-29T04:45:20.647Z,99.90
2023-03-29T04:47:49.024Z,99.90
2023-03-29T04:50:17.220Z,99.90
2023-03-29T04:52:45.607Z,99.90
2023-03-29T04:55:13.797Z,99.90
2023-03-29T04:57:41.866Z,99.90
2023-03-29T05:00:15.451Z,99.90
2023-03-29T05:02:44.415Z,99.90
2023-03-29T05:05:13.253Z,99.90
2023-03-29T05:07:41.708Z,99.90
2023-03-29T05:10:10.522Z,99.90
2023-03-29T05:12:39.056Z,99.90
2023-03-29T05:15:08.328Z,99.90
2023-03-29T05:17:37.816Z,99.90
2023-03-29T05:20:09.502Z,99.90
2023-03-29T05:22:38.536Z,99.90
2023-03-29T05:25:07.368Z,99.90
2023-03-29T05:27:35.979Z,99.90
2023-03-29T05:30:04.684Z,99.90
2023-03-29T05:32:32.867Z,99.90
2023-03-29T05:35:02.932Z,99.90
2023-03-29T05:37:31.882Z,99.90
2023-03-29T05:40:05.617Z,99.90
2023-03-29T05:42:34.603Z,99.90
2023-03-29T05:45:02.750Z,99.90
2023-03-29T05:47:30.770Z,99.90
2023-03-29T05:49:58.751Z,99.90
2023-03-29T05:52:28.272Z,99.90
2023-03-29T05:54:56.933Z,99.90
2023-03-29T05:57:25.327Z,99.90
2023-03-29T05:59:53.508Z,99.90
2023-03-29T06:02:21.595Z,99.90
2023-03-29T06:04:50.020Z,99.90
2023-03-29T06:07:18.499Z,99.90
2023-03-29T06:09:47.826Z,99.90
2023-03-29T06:12:16.272Z,99.90
2023-03-29T06:14:44.247Z,99.90
2023-03-29T06:17:12.360Z,99.90
2023-03-29T06:19:40.499Z,99.90
2023-03-29T06:22:08.520Z,99.90
2023-03-29T06:24:36.669Z,99.90
2023-03-29T06:27:06.259Z,99.90
2023-03-29T06:29:34.288Z,99.90
2023-03-29T06:32:02.306Z,99.90
2023-03-29T06:34:30.414Z,99.90
2023-03-29T06:36:58.568Z,99.90
2023-03-29T06:39:26.982Z,99.90
2023-03-29T06:41:55.641Z,99.90
2023-03-29T06:44:25.808Z,99.90
2023-03-29T06:46:54.244Z,99.90
2023-03-29T06:49:22.771Z,99.90
2023-03-29T06:51:50.802Z,99.90
2023-03-29T06:54:18.927Z,99.90
2023-03-29T06:56:47.374Z,99.90
2023-03-29T06:59:15.475Z,99.90
2023-03-29T07:01:45.284Z,99.90
2023-03-29T07:04:14.119Z,99.90
2023-03-29T07:06:48.467Z,99.90
2023-03-29T07:09:18.367Z,99.90
2023-03-29T07:11:47.695Z,99.90
2023-03-29T07:14:16.002Z,99.90
2023-03-29T07:19:16.972Z,99.90
2023-03-29T07:21:44.970Z,99.90
2023-03-29T07:24:12.979Z,99.90
2023-03-29T07:26:52.212Z,99.90
2023-03-29T07:29:29.468Z,99.90
2023-03-29T07:31:59.073Z,99.90
2023-03-29T07:34:27.247Z,99.90
2023-03-29T07:36:55.775Z,99.90
2023-03-29T07:39:24.139Z,99.90
2023-03-29T07:41:52.244Z,99.90
2023-03-29T07:44:21.622Z,99.90
2023-03-29T07:46:49.666Z,99.90
2023-03-29T07:49:21.001Z,99.90
2023-03-29T07:51:50.320Z,99.90
2023-03-29T07:54:18.969Z,99.90
2023-03-29T07:56:47.690Z,99.90
2023-03-29T07:59:16.601Z,99.90
2023-03-29T08:01:44.689Z,99.90
2023-03-29T08:04:12.796Z,99.90
2023-03-29T08:06:42.517Z,99.90
2023-03-29T08:09:10.563Z,99.90
2023-03-29T08:11:39.938Z,99.90
2023-03-29T08:14:09.092Z,99.90
2023-03-29T08:17:30.793Z,99.90
2023-03-29T08:19:58.888Z,99.90
2023-03-29T08:22:27.154Z,99.90
2023-03-29T08:24:55.303Z,99.90
2023-03-29T08:27:23.256Z,99.90
2023-03-29T08:29:51.170Z,99.90
2023-03-29T08:32:19.302Z,99.90
2023-03-29T08:34:48.884Z,99.90
2023-03-29T08:37:17.289Z,99.90
2023-03-29T08:39:46.012Z,99.90
2023-03-29T08:42:32.415Z,99.90
2023-03-29T08:45:09.477Z,99.90
2023-03-29T08:47:47.228Z,99.90
2023-03-29T08:50:17.330Z,99.90
2023-03-29T08:52:50.698Z,99.90
2023-03-29T08:55:27.947Z,99.90
2023-03-29T08:57:56.802Z,99.90
2023-03-29T09:00:33.337Z,99.90
2023-03-29T09:03:02.802Z,99.90
2023-03-29T09:05:36.215Z,99.90
2023-03-29T09:08:05.143Z,99.90
2023-03-29T09:10:40.864Z,99.90
2023-03-29T09:13:22.036Z,99.90
2023-03-29T09:15:55.667Z,99.90
2023-03-29T09:18:31.651Z,99.90
2023-03-29T09:21:04.422Z,99.90
2023-03-29T09:24:20.045Z,99.90
2023-03-29T09:26:53.910Z,99.90
2023-03-29T09:29:42.139Z,99.90
2023-03-29T09:32:19.201Z,99.90
2023-03-29T09:34:55.041Z,99.90
2023-03-29T09:37:29.844Z,99.90
2023-03-29T09:39:58.530Z,99.90
2023-03-29T09:42:29.385Z,99.90
2023-03-29T09:45:08.165Z,99.90
2023-03-29T09:47:40.011Z,99.90
2023-03-29T09:50:27.181Z,99.90
2023-03-29T09:52:59.628Z,99.90
2023-03-29T09:55:30.000Z,99.90
2023-03-29T09:58:01.558Z,99.90
2023-03-29T10:00:30.207Z,99.90
2023-03-29T10:03:00.361Z,99.90
2023-03-29T10:05:32.606Z,99.40
2023-03-29T10:08:03.517Z,99.40
2023-03-29T10:10:34.631Z,98.00
2023-03-29T10:13:06.904Z,97.60
2023-03-29T10:15:35.012Z,97.20
2023-03-29T10:18:04.686Z,96.60
2023-03-29T10:20:36.471Z,95.90
2023-03-29T10:23:09.141Z,95.70
2023-03-29T10:25:42.802Z,95.20
2023-03-29T10:28:17.535Z,94.40
2023-03-29T10:30:53.074Z,93.60
2023-03-29T10:33:24.053Z,92.90
2023-03-29T10:35:52.448Z,92.60
2023-03-29T10:38:25.214Z,92.10
2023-03-29T10:40:54.983Z,91.70
2023-03-29T10:43:27.286Z,91.00
2023-03-29T10:45:57.965Z,91.00
2023-03-29T10:48:29.723Z,90.90
2023-03-29T10:51:01.975Z,90.60
2023-03-29T10:53:34.192Z,90.40
2023-03-29T10:56:12.753Z,90.40
2023-03-29T10:58:51.186Z,89.30
2023-03-29T11:01:26.142Z,86.60
2023-03-29T11:04:08.448Z,84.50
2023-03-29T11:06:42.497Z,83.30
2023-03-29T11:09:23.589Z,83.20
2023-03-29T11:12:15.084Z,83.40
2023-03-29T11:14:53.807Z,82.90
2023-03-29T11:17:36.647Z,81.40
2023-03-29T11:20:27.052Z,81.20
2023-03-29T11:23:03.165Z,80.90
2023-03-29T11:25:41.942Z,81.00
2023-03-29T11:28:15.173Z,79.00
2023-03-29T11:30:48.665Z,78.60
2023-03-29T11:33:38.711Z,79.50
2023-03-29T11:36:13.321Z,79.40
2023-03-29T11:38:47.956Z,77.30
2023-03-29T11:41:19.759Z,77.30
2023-03-29T11:43:50.666Z,77.50
2023-03-29T11:46:22.844Z,77.50
2023-03-29T11:48:54.971Z,77.60
2023-03-29T11:51:26.842Z,77.30
2023-03-29T11:54:01.807Z,76.70
2023-03-29T11:56:36.981Z,76.30
2023-03-29T11:59:13.139Z,75.20
2023-03-29T12:01:46.506Z,73.70
2023-03-29T12:04:23.041Z,73.70
2023-03-29T12:06:58.354Z,72.70
2023-03-29T12:09:34.111Z,71.10
2023-03-29T12:12:09.974Z,71.20
2023-03-29T12:14:54.221Z,71.30
2023-03-29T12:17:28.171Z,71.40
2023-03-29T12:20:05.477Z,71.30
2023-03-29T12:22:33.905Z,71.90
2023-03-29T12:25:05.201Z,71.90
2023-03-29T12:27:40.666Z,71.50
2023-03-29T12:30:38.417Z,71.50
2023-03-29T12:33:21.552Z,71.30
2023-03-29T12:35:59.164Z,71.00
2023-03-29T12:38:30.932Z,71.40
2023-03-29T12:41:02.015Z,70.90
2023-03-29T12:43:33.304Z,70.00
2023-03-29T12:46:08.387Z,70.10
2023-03-29T12:48:40.188Z,71.20
2023-03-29T12:51:13.360Z,69.80
2023-03-29T12:53:44.026Z,70.40
2023-03-29T12:56:16.058Z,70.10
2023-03-29T12:59:09.040Z,70.50
2023-03-29T13:01:38.669Z,70.50
2023-03-29T13:04:19.823Z,70.70
2023-03-29T13:07:03.922Z,70.20
2023-03-29T13:09:35.666Z,69.80
2023-03-29T13:12:10.239Z,69.30
2023-03-29T13:14:43.830Z,68.70
2023-03-29T13:17:23.661Z,68.70
2023-03-29T13:20:04.542Z,68.10
2023-03-29T13:22:42.186Z,68.20
2023-03-29T13:25:25.450Z,69.00
2023-03-29T13:28:03.387Z,69.00
2023-03-29T13:30:48.302Z,69.20
2023-03-29T13:33:31.485Z,69.50
2023-03-29T13:36:06.755Z,69.60
2023-03-29T13:38:47.055Z,69.90
2023-03-29T13:41:32.364Z,70.00
2023-03-29T13:44:00.618Z,69.70
2023-03-29T13:46:41.924Z,69.70
2023-03-29T13:49:19.828Z,70.10
2023-03-29T13:52:03.604Z,70.30
2023-03-29T13:54:36.601Z,70.60
2023-03-29T13:57:11.331Z,70.90
2023-03-29T13:59:49.195Z,71.10
2023-03-29T14:02:26.363Z,71.10
2023-03-29T14:04:55.915Z,71.20
2023-03-29T14:07:26.383Z,71.40
2023-03-29T14:09:55.932Z,71.60
2023-03-29T14:12:24.435Z,71.80
2023-03-29T14:14:59.222Z,72.10
2023-03-29T14:17:29.272Z,72.40
2023-03-29T14:20:00.787Z,72.40
2023-03-29T14:22:33.548Z,72.60
2023-03-29T14:25:06.733Z,72.50
2023-03-29T14:27:37.796Z,72.50
2023-03-29T14:30:23.426Z,72.50
2023-03-29T14:32:53.271Z,72.70
2023-03-29T14:35:28.207Z,72.90
2023-03-29T14:37:56.552Z,72.90
2023-03-29T14:40:24.508Z,72.50
2023-03-29T14:42:52.510Z,72.30
2023-03-29T14:45:24.282Z,72.20
2023-03-29T14:47:53.867Z,71.90
2023-03-29T14:50:26.809Z,71.90
2023-03-29T14:52:57.264Z,71.90
2023-03-29T14:55:25.823Z,72.20
2023-03-29T14:57:55.929Z,72.20
2023-03-29T15:00:28.173Z,72.40
2023-03-29T15:02:59.603Z,72.70
2023-03-29T15:05:34.282Z,72.90
2023-03-29T15:08:02.984Z,72.80
2023-03-29T15:10:34.030Z,72.80
2023-03-29T15:13:04.498Z,72.80
2023-03-29T15:15:34.613Z,72.50
2023-03-29T15:18:05.529Z,72.20
2023-03-29T15:20:36.046Z,72.30
2023-03-29T15:23:09.542Z,72.70
2023-03-29T15:25:39.228Z,73.10
2023-03-29T15:28:07.573Z,73.40
2023-03-29T15:30:37.589Z,73.60
2023-03-29T15:33:20.531Z,74.10
2023-03-29T15:35:51.972Z,74.10
2023-03-29T15:38:23.417Z,74.00
2023-03-29T15:40:56.125Z,74.30
2023-03-29T15:43:24.572Z,74.50
2023-03-29T15:45:52.614Z,75.00
2023-03-29T15:48:25.705Z,75.20
2023-03-29T15:50:54.800Z,75.30
2023-03-29T15:53:23.708Z,75.50
2023-03-29T15:55:54.074Z,75.50
2023-03-29T15:58:25.632Z,75.50
2023-03-29T16:00:59.268Z,75.80
2023-03-29T16:03:28.645Z,76.10
2023-03-29T16:05:57.044Z,76.50
2023-03-29T16:08:26.015Z,76.70
2023-03-29T16:10:53.978Z,77.10
2023-03-29T16:13:21.969Z,77.50
2023-03-29T16:15:49.949Z,77.50
2023-03-29T16:18:17.832Z,77.60
2023-03-29T16:20:47.279Z,77.70
2023-03-29T16:23:15.612Z,77.90
2023-03-29T16:25:43.588Z,78.10
2023-03-29T16:28:11.705Z,78.30
2023-03-29T16:30:40.066Z,78.50
2023-03-29T16:33:08.712Z,79.00
2023-03-29T16:35:38.741Z,79.20
2023-03-29T16:38:09.279Z,79.50
2023-03-29T16:40:38.471Z,79.70
2023-03-29T16:43:06.674Z,80.10
2023-03-29T16:45:34.762Z,80.40
2023-03-29T16:48:02.779Z,80.60
2023-03-29T16:50:30.827Z,81.00
2023-03-29T16:52:58.788Z,81.20
2023-03-29T16:55:28.453Z,81.50
2023-03-29T16:57:56.399Z,81.80
2023-03-29T17:00:24.503Z,82.10
2023-03-29T17:02:52.792Z,82.40
2023-03-29T17:05:20.869Z,82.70
2023-03-29T17:07:48.807Z,83.10
2023-03-29T17:10:16.912Z,83.30
2023-03-29T17:12:46.208Z,83.60
2023-03-29T17:15:14.285Z,83.90
2023-03-29T17:17:42.458Z,84.10
2023-03-29T17:20:12.914Z,84.40
2023-03-29T17:22:41.446Z,84.70
2023-03-29T17:25:11.076Z,85.10
2023-03-29T17:27:39.330Z,86.40
2023-03-29T17:30:10.191Z,85.90
2023-03-29T17:32:38.122Z,86.20
2023-03-29T17:35:06.509Z,86.40
2023-03-29T17:37:34.496Z,86.70
2023-03-29T17:40:09.541Z,86.90
2023-03-29T17:42:37.547Z,87.20
2023-03-29T17:45:06.500Z,87.50
2023-03-29T17:47:35.951Z,87.70
2023-03-29T17:50:03.980Z,87.90
2023-03-29T17:52:32.260Z,88.10
2023-03-29T17:55:00.420Z,88.30
2023-03-29T17:57:28.595Z,88.50
2023-03-29T17:59:56.726Z,88.80
2023-03-29T18:02:25.924Z,88.90
2023-03-29T18:04:55.636Z,90.00
2023-03-29T18:07:23.636Z,89.40
2023-03-29T18:09:52.524Z,89.60
2023-03-29T18:12:20.742Z,89.60
2023-03-29T18:14:48.665Z,89.80
2023-03-29T18:17:16.699Z,90.00
2023-03-29T18:19:44.806Z,90.10
2023-03-29T18:22:14.184Z,90.20
2023-03-29T18:24:42.477Z,90.30
2023-03-29T18:27:10.664Z,90.40
2023-03-29T18:29:39.090Z,90.50
2023-03-29T18:32:07.776Z,90.60
2023-03-29T18:34:35.845Z,90.80
2023-03-29T18:37:04.124Z,90.80
2023-03-29T18:39:34.765Z,91.00
2023-03-29T18:42:03.155Z,91.10
2023-03-29T18:44:31.205Z,91.20
2023-03-29T18:46:59.129Z,91.30
2023-03-29T18:49:27.106Z,91.50
2023-03-29T18:51:55.572Z,91.60
2023-03-29T18:54:23.522Z,91.70
2023-03-29T18:56:53.135Z,91.80
2023-03-29T18:59:21.332Z,91.90
2023-03-29T19:01:49.642Z,92.00
2023-03-29T19:04:19.520Z,92.10
2023-03-29T19:06:47.539Z,92.20
2023-03-29T19:09:16.208Z,92.30
2023-03-29T19:11:44.250Z,92.40
2023-03-29T19:14:13.563Z,92.50
2023-03-29T19:16:42.859Z,92.60
2023-03-29T19:19:11.026Z,92.80
2023-03-29T19:21:39.455Z,92.90
2023-03-29T19:24:08.365Z,93.00
2023-03-29T19:26:36.766Z,93.50
2023-03-29T19:29:05.667Z,93.30
2023-03-29T19:31:37.802Z,93.40
2023-03-29T19:34:06.857Z,93.50
2023-03-29T19:36:35.018Z,93.60
2023-03-29T19:39:02.983Z,93.80
2023-03-29T19:41:31.115Z,93.90
2023-03-29T19:43:59.263Z,94.00
2023-03-29T19:46:28.454Z,94.20
2023-03-29T19:48:59.640Z,94.20
2023-03-29T19:51:27.978Z,94.40
2023-03-29T19:53:56.187Z,94.50
2023-03-29T19:56:25.713Z,94.60
2023-03-29T19:58:53.898Z,94.80
2023-03-29T20:01:22.356Z,94.90
2023-03-29T20:03:51.022Z,95.00
2023-03-29T20:06:21.785Z,95.20
2023-03-29T20:08:49.737Z,95.40
2023-03-29T20:11:23.646Z,95.50
2023-03-29T20:13:51.673Z,95.70
2023-03-29T20:16:24.466Z,95.80
2023-03-29T20:18:54.085Z,96.00
2023-03-29T20:21:23.424Z,96.10
2023-03-29T20:23:51.546Z,96.30
2023-03-29T20:26:19.792Z,96.50
2023-03-29T20:28:47.783Z,96.60
2023-03-29T20:31:15.865Z,97.20
2023-03-29T20:33:44.459Z,97.00
2023-03-29T20:36:13.411Z,97.20
2023-03-29T20:38:42.940Z,97.30
2023-03-29T20:41:10.921Z,97.50
2023-03-29T20:43:38.905Z,97.70
2023-03-29T20:46:14.561Z,97.90
2023-03-29T20:48:46.121Z,98.10
2023-03-29T20:51:14.220Z,98.30
2023-03-29T20:53:43.722Z,98.40
2023-03-29T20:56:13.079Z,99.00
2023-03-29T20:58:42.278Z,98.80
2023-03-29T21:01:12.345Z,99.00
2023-03-29T21:03:40.441Z,99.10
2023-03-29T21:06:09.452Z,99.40
2023-03-29T21:08:38.867Z,99.60
2023-03-29T21:11:08.595Z,99.70
2023-03-29T21:13:37.282Z,99.90
2023-03-29T21:16:05.743Z,99.90
2023-03-29T21:18:33.729Z,99.90
2023-03-29T21:21:01.917Z,99.90
2023-03-29T21:23:30.067Z,99.90
2023-03-29T21:25:58.178Z,99.90
2023-03-29T21:28:27.471Z,99.90
2023-03-29T21:30:55.768Z,99.90
2023-03-29T21:33:24.024Z,99.90
2023-03-29T21:35:52.369Z,99.90
2023-03-29T21:38:20.490Z,99.90
2023-03-29T21:40:48.430Z,99.90
2023-03-29T21:43:16.668Z,99.90
2023-03-29T21:45:49.251Z,99.90
2023-03-29T21:48:17.415Z,99.90
2023-03-29T21:50:45.631Z,99.90
2023-03-29T21:53:13.565Z,99.90
2023-03-29T21:55:41.472Z,99.90
2023-03-29T21:58:09.447Z,99.90
2023-03-29T22:00:37.469Z,99.90
2023-03-29T22:03:07.567Z,99.90
2023-03-29T22:05:36.107Z,99.90
2023-03-29T22:08:05.163Z,99.90
2023-03-29T22:10:34.327Z,99.90
2023-03-29T22:13:02.332Z,99.90
2023-03-29T22:15:35.462Z,99.90
2023-03-29T22:18:03.696Z,99.90
2023-03-29T22:20:35.605Z,99.90
2023-03-29T22:23:04.754Z,99.90
2023-03-29T22:25:32.835Z,99.90
2023-03-29T22:28:00.792Z,99.90
2023-03-29T22:30:28.756Z,99.90
2023-03-29T22:32:56.751Z,99.90
2023-03-29T22:35:24.734Z,99.90
2023-03-29T22:37:54.193Z,99.90
2023-03-29T22:40:22.190Z,99.90
2023-03-29T22:42:50.125Z,99.90
2023-03-29T22:45:18.756Z,99.90
2023-03-29T22:47:46.791Z,99.90
2023-03-29T22:50:14.809Z,99.90
2023-03-29T22:52:42.708Z,99.90
2023-03-29T22:55:12.088Z,99.90
2023-03-29T22:57:40.179Z,99.90
2023-03-29T23:00:10.500Z,99.90
2023-03-29T23:02:38.551Z,99.90
2023-03-29T23:05:07.356Z,99.90
2023-03-29T23:07:36.684Z,99.90
2023-03-29T23:10:06.474Z,99.90
2023-03-29T23:12:36.664Z,99.90
2023-03-29T23:15:06.352Z,99.90
2023-03-29T23:17:35.075Z,99.90
2023-03-29T23:20:06.141Z,99.90
2023-03-29T23:22:36.279Z,99.90
2023-03-29T23:25:04.329Z,99.90
2023-03-29T23:27:33.119Z,99.90
2023-03-29T23:30:02.612Z,99.90
2023-03-29T23:32:30.557Z,99.90
2023-03-29T23:34:59.990Z,99.90
2023-03-29T23:37:28.208Z,99.90
2023-03-29T23:39:56.318Z,99.90
2023-03-29T23:42:24.390Z,99.90
2023-03-29T23:44:52.758Z,99.90
2023-03-29T23:47:22.101Z,99.90
2023-03-29T23:49:50.698Z,99.90
2023-03-29T23:52:18.676Z,99.90
2023-03-29T23:54:46.598Z,99.90
2023-03-29T23:57:14.561Z,99.90
2023-03-29T23:59:42.774Z,99.90
